createdAt,value
2022-12-25T00:03:07.987Z,59.80
2022-12-25T00:08:10.080Z,58.84
2022-12-25T00:13:11.972Z,59.65
2022-12-25T00:18:13.869Z,59.19
2022-12-25T00:23:15.714Z,58.40
2022-12-25T00:28:17.856Z,58.17
2022-12-25T00:33:19.738Z,58.25
2022-12-25T00:38:21.601Z,58.55
2022-12-25T00:43:23.516Z,57.77
2022-12-25T00:48:26.547Z,58.06
2022-12-25T00:53:29.166Z,57.88
2022-12-25T00:58:32.892Z,57.17
2022-12-25T01:03:34.820Z,57.23
2022-12-25T01:08:38.841Z,57.71
2022-12-25T01:13:40.673Z,57.44
2022-12-25T01:18:43.449Z,57.68
2022-12-25T01:23:45.335Z,57.61
2022-12-25T01:28:47.372Z,57.73
2022-12-25T01:33:49.692Z,57.85
2022-12-25T01:38:52.935Z,58.11
2022-12-25T01:44:00.811Z,57.20
2022-12-25T01:49:07.279Z,57.89
2022-12-25T01:54:16.233Z,57.79
2022-12-25T01:59:21.366Z,58.32
2022-12-25T02:04:41.365Z,58.28
2022-12-25T02:09:43.845Z,57.77
2022-12-25T02:14:48.483Z,57.65
2022-12-25T02:20:27.649Z,57.44
2022-12-25T02:25:38.216Z,58.26
2022-12-25T02:30:47.118Z,57.94
2022-12-25T02:35:53.442Z,58.26
2022-12-25T02:41:07.473Z,57.97
2022-12-25T02:46:33.234Z,57.93
2022-12-25T02:51:57.584Z,58.00
2022-12-25T02:57:24.703Z,57.62
2022-12-25T03:02:47.630Z,58.07
2022-12-25T03:07:50.057Z,58.12
2022-12-25T03:12:53.952Z,58.11
2022-12-25T03:17:59.364Z,58.26
2022-12-25T03:23:20.631Z,58.62
2022-12-25T03:28:22.500Z,58.84
2022-12-25T03:34:03.709Z,58.37
2022-12-25T03:39:28.760Z,58.38
2022-12-25T03:45:11.863Z,58.34
2022-12-25T03:51:08.117Z,58.75
2022-12-25T03:56:29.496Z,58.17
2022-12-25T04:01:50.275Z,58.40
2022-12-25T04:07:10.799Z,58.32
2022-12-25T04:12:30.901Z,58.66
2022-12-25T04:17:51.485Z,58.00
2022-12-25T04:23:12.075Z,58.33
2022-12-25T04:28:32.881Z,58.20
2022-12-25T04:33:53.541Z,58.20
2022-12-25T04:38:55.357Z,58.27
2022-12-25T04:43:57.153Z,58.08
2022-12-25T04:48:59.012Z,58.45
2022-12-25T04:54:00.835Z,58.94
2022-12-25T04:59:02.671Z,58.51
2022-12-25T05:04:04.656Z,58.40
2022-12-25T05:09:06.909Z,58.72
2022-12-25T05:14:08.735Z,58.75
2022-12-25T05:19:11.050Z,58.73
2022-12-25T05:24:12.923Z,58.90
2022-12-25T05:29:14.722Z,58.70
2022-12-25T05:34:16.601Z,58.50
2022-12-25T05:39:18.625Z,58.74
2022-12-25T05:44:20.449Z,59.02
2022-12-25T05:49:22.354Z,59.16
2022-12-25T05:54:24.242Z,59.11
2022-12-25T05:59:28.642Z,58.46
2022-12-25T06:04:30.563Z,59.01
2022-12-25T06:09:32.449Z,59.19
2022-12-25T06:14:36.788Z,59.53
2022-12-25T06:19:38.712Z,59.49
2022-12-25T06:24:41.246Z,58.84
2022-12-25T06:29:43.081Z,58.95
2022-12-25T06:34:45.116Z,58.61
2022-12-25T06:39:48.145Z,58.73
2022-12-25T06:44:51.148Z,58.35
2022-12-25T06:49:52.954Z,58.72
2022-12-25T06:54:54.803Z,58.80
2022-12-25T06:59:56.716Z,59.04
2022-12-25T07:05:00.177Z,58.21
2022-12-25T07:10:02.139Z,58.27
2022-12-25T07:15:04.461Z,58.58
2022-12-25T07:20:07.129Z,58.35
2022-12-25T07:25:09.064Z,58.57
2022-12-25T07:30:11.542Z,58.49
2022-12-25T07:35:13.421Z,58.16
2022-12-25T07:40:15.443Z,58.40
2022-12-25T07:45:17.407Z,58.21
2022-12-25T07:50:19.531Z,58.48
2022-12-25T07:55:21.464Z,57.91
2022-12-25T08:00:23.389Z,58.09
2022-12-25T08:05:25.280Z,58.23
2022-12-25T08:10:27.107Z,58.51
2022-12-25T08:15:30.905Z,58.79
2022-12-25T08:20:33.856Z,58.74
2022-12-25T08:25:35.755Z,58.46
2022-12-25T08:30:41.605Z,58.13
2022-12-25T08:35:44.190Z,58.26
2022-12-25T08:40:46.694Z,58.72
2022-12-25T08:45:49.307Z,58.46
2022-12-25T08:50:52.937Z,57.68
2022-12-25T08:56:04.603Z,58.14
2022-12-25T09:01:07.533Z,57.82
2022-12-25T09:06:12.631Z,57.74
2022-12-25T09:11:15.751Z,57.57
2022-12-25T09:16:20.774Z,57.19
2022-12-25T09:21:22.960Z,57.43
2022-12-25T09:26:25.042Z,57.06
2022-12-25T09:31:27.014Z,56.72
2022-12-25T09:36:29.374Z,56.60
2022-12-25T09:41:46.162Z,56.34
2022-12-25T09:46:54.074Z,56.14
2022-12-25T09:52:05.151Z,55.72
2022-12-25T09:57:12.205Z,55.53
2022-12-25T10:02:45.160Z,55.72
2022-12-25T10:07:53.312Z,55.44
2022-12-25T10:13:22.641Z,55.50
2022-12-25T10:19:10.184Z,55.63
2022-12-25T10:24:36.924Z,55.83
2022-12-25T10:29:39.853Z,55.36
2022-12-25T10:34:43.704Z,55.41
2022-12-25T10:39:46.829Z,55.43
2022-12-25T10:44:59.736Z,55.69
2022-12-25T10:50:12.054Z,55.70
2022-12-25T10:55:23.531Z,55.19
2022-12-25T11:00:32.130Z,54.83
2022-12-25T11:05:37.180Z,55.21
2022-12-25T11:10:44.236Z,55.23
2022-12-25T11:15:49.675Z,55.01
2022-12-25T11:20:58.361Z,54.97
2022-12-25T11:26:06.027Z,54.98
2022-12-25T11:31:13.247Z,55.05
2022-12-25T11:36:35.116Z,54.82
2022-12-25T11:41:39.004Z,54.56
2022-12-25T11:46:46.202Z,54.98
2022-12-25T11:51:51.690Z,54.64
2022-12-25T11:56:55.979Z,54.85
2022-12-25T12:02:26.068Z,54.66
2022-12-25T12:07:32.448Z,54.59
2022-12-25T12:12:55.887Z,54.71
2022-12-25T12:18:22.397Z,55.18
2022-12-25T12:23:24.432Z,54.99
2022-12-25T12:28:29.252Z,55.28
2022-12-25T12:33:36.959Z,55.25
2022-12-25T12:38:41.094Z,55.35
2022-12-25T12:43:57.289Z,55.54
2022-12-25T12:49:24.247Z,55.01
2022-12-25T12:54:27.997Z,53.51
2022-12-25T12:59:48.739Z,53.29
2022-12-25T13:05:14.185Z,53.96
2022-12-25T13:10:38.063Z,54.19
2022-12-25T13:15:40.084Z,54.96
2022-12-25T13:20:54.852Z,55.35
2022-12-25T13:25:59.892Z,55.51
2022-12-25T13:31:05.685Z,55.89
2022-12-25T13:36:12.939Z,55.83
2022-12-25T13:41:43.491Z,55.82
2022-12-25T13:46:45.766Z,55.98
2022-12-25T13:51:48.769Z,55.97
2022-12-25T13:56:53.883Z,56.15
2022-12-25T14:01:57.963Z,56.61
2022-12-25T14:07:10.297Z,56.64
2022-12-25T14:12:19.119Z,56.50
2022-12-25T14:17:23.130Z,56.41
2022-12-25T14:22:26.249Z,56.07
2022-12-25T14:27:30.685Z,55.83
2022-12-25T14:32:43.319Z,56.13
2022-12-25T14:37:45.824Z,55.99
2022-12-25T14:43:02.155Z,56.18
2022-12-25T14:48:24.426Z,56.20
2022-12-25T14:53:34.460Z,56.26
2022-12-25T14:58:43.507Z,56.30
2022-12-25T15:03:45.371Z,56.32
2022-12-25T15:09:02.996Z,56.32
2022-12-25T15:14:04.932Z,56.39
2022-12-25T15:19:08.818Z,56.35
2022-12-25T15:24:13.529Z,56.44
2022-12-25T15:29:15.390Z,56.61
2022-12-25T15:34:21.059Z,56.47
2022-12-25T15:39:22.962Z,56.67
2022-12-25T15:44:25.445Z,56.64
2022-12-25T15:49:27.305Z,56.71
2022-12-25T15:54:29.745Z,56.76
2022-12-25T15:59:32.353Z,56.82
2022-12-25T16:04:34.535Z,56.58
2022-12-25T16:09:36.501Z,56.61
2022-12-25T16:14:38.366Z,56.25
2022-12-25T16:19:41.857Z,56.14
2022-12-25T16:24:43.683Z,56.00
2022-12-25T16:29:45.565Z,56.44
2022-12-25T16:34:49.182Z,56.45
2022-12-25T16:39:51.012Z,56.41
2022-12-25T16:44:52.963Z,56.47
2022-12-25T16:49:54.786Z,56.34
2022-12-25T16:54:56.600Z,56.45
2022-12-25T16:59:58.539Z,56.33
2022-12-25T17:05:01.100Z,56.30
2022-12-25T17:10:04.236Z,56.93
2022-12-25T17:15:07.986Z,57.03
2022-12-25T17:20:10.238Z,57.17
2022-12-25T17:25:12.356Z,57.20
2022-12-25T17:30:14.600Z,57.41
2022-12-25T17:35:17.886Z,57.82
2022-12-25T17:40:19.720Z,57.99
2022-12-25T17:45:21.754Z,57.98
2022-12-25T17:50:25.644Z,57.84
2022-12-25T17:55:29.347Z,57.77
2022-12-25T18:00:31.444Z,57.90
2022-12-25T18:05:36.389Z,58.00
2022-12-25T18:10:39.958Z,57.86
2022-12-25T18:15:41.873Z,57.59
2022-12-25T18:20:43.762Z,57.70
2022-12-25T18:25:45.687Z,57.59
2022-12-25T18:30:48.435Z,57.50
2022-12-25T18:35:50.862Z,57.42
2022-12-25T18:40:52.738Z,57.68
2022-12-25T18:45:59.462Z,57.27
2022-12-25T18:51:07.389Z,56.67
2022-12-25T18:56:17.698Z,55.73
2022-12-25T19:01:22.557Z,55.29
2022-12-25T19:06:27.249Z,54.49
2022-12-25T19:11:29.120Z,54.43
2022-12-25T19:16:31.240Z,54.55
2022-12-25T19:21:33.132Z,54.22
2022-12-25T19:26:36.062Z,54.09
2022-12-25T19:31:38.369Z,53.90
2022-12-25T19:36:40.740Z,53.93
2022-12-25T19:41:42.668Z,54.18
2022-12-25T19:46:44.581Z,54.28
2022-12-25T19:51:47.101Z,54.34
2022-12-25T19:56:49.505Z,54.52
2022-12-25T20:01:51.919Z,54.44
2022-12-25T20:06:54.071Z,54.36
2022-12-25T20:11:55.994Z,54.03
2022-12-25T20:16:57.906Z,54.16
2022-12-25T20:22:01.190Z,53.80
2022-12-25T20:27:03.214Z,53.97
2022-12-25T20:32:05.619Z,53.78
2022-12-25T20:37:07.713Z,53.47
2022-12-25T20:42:09.803Z,53.25
2022-12-25T20:47:12.418Z,53.05
2022-12-25T20:52:14.314Z,53.35
2022-12-25T20:57:16.157Z,53.49
2022-12-25T21:02:35.379Z,53.38
2022-12-25T21:07:38.295Z,53.12
2022-12-25T21:12:40.147Z,52.99
2022-12-25T21:17:41.963Z,53.01
2022-12-25T21:22:43.890Z,52.92
2022-12-25T21:27:45.723Z,52.88
2022-12-25T21:33:06.174Z,52.75
2022-12-25T21:38:08.045Z,52.82
2022-12-25T21:43:14.268Z,52.40
2022-12-25T21:48:16.138Z,52.57
2022-12-25T21:53:20.969Z,52.32
2022-12-25T21:58:23.014Z,52.50
2022-12-25T22:03:25.095Z,52.15
2022-12-25T22:08:34.106Z,52.10
2022-12-25T22:13:54.473Z,51.93
2022-12-25T22:19:15.078Z,51.79
2022-12-25T22:24:17.141Z,51.29
2022-12-25T22:29:18.966Z,51.20
2022-12-25T22:34:20.848Z,51.07
2022-12-25T22:39:22.702Z,50.97
2022-12-25T22:44:26.314Z,50.99
2022-12-25T22:49:28.172Z,50.75
2022-12-25T22:54:31.678Z,50.49
2022-12-25T22:59:33.997Z,50.91
2022-12-25T23:04:36.059Z,50.68
2022-12-25T23:09:37.980Z,50.55
2022-12-25T23:14:39.846Z,50.55
2022-12-25T23:20:00.612Z,50.65
2022-12-25T23:25:20.723Z,51.11
2022-12-25T23:30:22.600Z,50.50
2022-12-25T23:35:24.461Z,49.97
2022-12-25T23:40:26.316Z,49.82
2022-12-25T23:45:28.136Z,50.36
2022-12-25T23:50:30.008Z,50.28
2022-12-25T23:55:33.694Z,50.23
